Time;durP1;ratioP1;P1;durP2;ratioP2;P2;SDS_P1;SDS_P2;PMS_P1;PMS_P2;Temp;Humidity;BMP_temperature;BMP_pressure;BME280_temperature;BME280_humidity;BME280_pressure;Samples;Min_cycle;Max_cycle;Signal;HPM_P1;HPM_P2
2022/05/02 00:02:11;;;;;;;8.80;5.82;;;;;;;13.12;83.22;100454.91;4880822;29;20041;-82
2022/05/02 00:04:37;;;;;;;6.63;5.55;;;;;;;12.90;84.05;100454.69;4863603;29;20100;-81
2022/05/02 00:07:03;;;;;;;12.20;5.55;;;;;;;12.93;84.15;100454.34;4871285;29;20047;-80
2022/05/02 00:09:29;;;;;;;7.82;5.93;;;;;;;12.90;83.98;100448.56;4854052;29;20033;-80
2022/05/02 00:11:54;;;;;;;9.52;5.85;;;;;;;12.74;85.11;100446.84;4868509;29;20408;-79
2022/05/02 00:14:20;;;;;;;8.15;6.28;;;;;;;12.64;85.45;100440.94;4868549;29;20044;-78
2022/05/02 00:16:45;;;;;;;7.85;5.50;;;;;;;12.88;85.13;100438.09;4868263;29;20381;-79
2022/05/02 00:19:12;;;;;;;10.38;6.57;;;;;;;12.96;83.99;100438.03;4851522;29;20127;-79
2022/05/02 00:21:37;;;;;;;7.75;6.00;;;;;;;13.07;83.23;100434.09;4869184;29;20445;-80
2022/05/02 00:24:07;;;;;;;9.65;5.60;;;;;;;13.02;82.61;100433.00;4869909;29;20041;-81
2022/05/02 00:26:32;;;;;;;7.53;6.07;;;;;;;13.08;82.30;100429.63;4871139;29;20037;-79
2022/05/02 00:28:58;;;;;;;7.95;5.63;;;;;;;12.79;83.18;100433.84;4871072;29;20029;-79
2022/05/02 00:31:23;;;;;;;12.85;6.22;;;;;;;12.37;86.16;100422.84;4852857;29;20378;-79
2022/05/02 00:33:49;;;;;;;8.15;5.93;;;;;;;12.18;87.71;100428.63;4871285;29;20072;-81
2022/05/02 00:36:15;;;;;;;8.75;6.75;;;;;;;11.99;89.31;100421.09;4868983;29;20033;-79
2022/05/02 00:38:41;;;;;;;9.75;6.10;;;;;;;12.01;89.87;100419.91;4869376;29;20033;-79
2022/05/02 00:41:07;;;;;;;11.05;7.30;;;;;;;11.86;91.12;100426.97;4872539;29;20033;-80
2022/05/02 00:43:33;;;;;;;9.75;6.68;;;;;;;11.88;91.80;100423.13;4871102;29;20037;-78
2022/05/02 00:45:59;;;;;;;9.77;6.50;;;;;;;11.93;91.87;100421.78;4869076;29;20037;-80
2022/05/02 00:48:25;;;;;;;8.35;6.45;;;;;;;11.72;93.62;100417.88;4868636;29;20043;-80
2022/05/02 00:50:54;;;;;;;9.35;7.18;;;;;;;11.84;93.46;100413.00;4868985;29;20037;-81
2022/05/02 00:53:22;;;;;;;7.88;6.72;;;;;;;11.64;94.84;100417.03;4870160;29;20505;-78
2022/05/02 00:55:48;;;;;;;12.43;7.18;;;;;;;11.56;95.63;100425.88;4850249;29;20060;-80
2022/05/02 00:58:16;;;;;;;10.02;7.32;;;;;;;11.72;94.36;100415.22;4867068;29;20076;-79
2022/05/02 01:00:42;;;;;;;10.88;7.18;;;;;;;11.81;93.40;100414.19;4890434;29;20076;-80
2022/05/02 01:03:10;;;;;;;9.27;6.68;;;;;;;11.82;93.15;100415.03;4860952;29;20160;-80
2022/05/02 01:08:29;;;;;;;9.40;6.75;;;;;;;11.71;93.99;100413.56;4869969;29;20401;-82
2022/05/02 01:10:56;;;;;;;8.95;6.25;;;;;;;11.79;92.88;100404.75;4868353;29;20136;-80
2022/05/02 01:13:38;;;;;;;12.70;6.90;;;;;;;11.99;91.69;100410.47;4868227;29;20457;-81
2022/05/02 01:16:17;;;;;;;7.93;5.95;;;;;;;12.28;90.36;100408.78;4869741;29;20048;-79
2022/05/02 01:18:44;;;;;;;8.68;5.90;;;;;;;12.23;89.35;100415.66;4869717;29;20040;-78
2022/05/02 01:21:14;;;;;;;8.23;6.18;;;;;;;12.18;89.59;100405.53;4869570;29;20076;-79
2022/05/02 01:23:41;;;;;;;8.55;6.15;;;;;;;12.25;89.49;100406.50;4868864;29;20041;-79
2022/05/02 01:26:07;;;;;;;9.80;6.40;;;;;;;12.49;88.29;100402.84;4867681;29;20022;-80
2022/05/02 01:28:51;;;;;;;11.43;6.15;;;;;;;12.15;88.87;100405.06;4869001;29;20056;-80
2022/05/02 01:31:18;;;;;;;8.68;6.22;;;;;;;11.93;89.06;100397.88;4869223;29;20033;-78
2022/05/02 01:33:45;;;;;;;9.38;6.38;;;;;;;11.62;91.26;100403.13;4869574;29;20478;-80
2022/05/02 01:36:11;;;;;;;9.45;5.75;;;;;;;11.53;91.74;100401.50;4870702;29;20044;-83
2022/05/02 01:38:37;;;;;;;7.25;6.30;;;;;;;11.41;92.52;100398.38;4851966;29;20041;-80
2022/05/02 01:41:04;;;;;;;10.75;5.93;;;;;;;11.38;92.73;100401.38;4843695;29;20043;-79
2022/05/02 01:43:31;;;;;;;9.07;6.68;;;;;;;11.34;92.52;100395.56;4843715;29;20496;-81
2022/05/02 01:45:59;;;;;;;9.50;6.40;;;;;;;11.31;92.90;100392.44;4860380;29;20073;-79
2022/05/02 01:48:24;;;;;;;9.27;6.65;;;;;;;11.45;91.49;100389.06;4860138;29;20033;-80
2022/05/02 01:50:50;;;;;;;9.70;6.85;;;;;;;11.43;92.22;100390.25;4860271;29;20048;-79
2022/05/02 01:53:16;;;;;;;9.63;6.85;;;;;;;11.50;92.18;100378.75;4860023;29;20029;-78
2022/05/02 01:55:41;;;;;;;11.82;6.50;;;;;;;11.73;90.72;100374.38;4860357;29;20422;-80
2022/05/02 01:58:07;;;;;;;8.45;5.95;;;;;;;11.95;89.41;100371.97;4860137;29;20040;-81
2022/05/02 02:00:33;;;;;;;7.53;5.97;;;;;;;12.06;88.22;100379.56;4843392;29;20132;-79
2022/05/02 02:02:58;;;;;;;7.78;6.53;;;;;;;12.16;87.45;100374.84;4860351;29;20465;-80
2022/05/02 02:08:08;;;;;;;9.40;6.47;;;;;;;11.78;89.91;100377.38;4860466;29;20037;-79
2022/05/02 02:10:34;;;;;;;12.20;7.07;;;;;;;11.72;90.21;100372.75;4860573;29;20041;-79
2022/05/02 02:12:59;;;;;;;8.73;6.70;;;;;;;11.64;90.28;100370.09;4860734;29;20045;-80
2022/05/02 02:15:25;;;;;;;11.60;6.97;;;;;;;11.64;90.77;100369.25;4861119;29;20037;-80
2022/05/02 02:17:50;;;;;;;7.63;6.05;;;;;;;11.72;90.30;100371.91;4860884;29;20029;-78
2022/05/02 02:20:16;;;;;;;10.30;6.95;;;;;;;11.74;89.81;100364.59;4860437;29;20037;-81
2022/05/02 02:22:41;;;;;;;7.95;6.15;;;;;;;11.84;89.15;100366.03;4860013;29;20459;-81
2022/05/02 02:25:07;;;;;;;10.30;6.15;;;;;;;11.73;89.82;100365.63;4860065;29;20038;-79
2022/05/02 02:27:33;;;;;;;9.68;6.65;;;;;;;11.79;90.15;100365.75;4872871;29;20041;-79
2022/05/02 02:29:59;;;;;;;9.32;7.10;;;;;;;11.65;90.15;100366.44;4876666;29;20062;-80
2022/05/02 02:32:26;;;;;;;8.52;6.90;;;;;;;11.71;90.86;100359.63;4860920;29;20033;-79
2022/05/02 02:34:51;;;;;;;7.68;6.50;;;;;;;11.98;89.51;100366.31;4883045;29;20041;-79
2022/05/02 02:37:17;;;;;;;9.40;7.10;;;;;;;11.90;88.89;100361.84;4884698;29;20051;-80
2022/05/02 02:39:43;;;;;;;8.85;7.05;;;;;;;11.75;90.01;100367.09;4869191;29;20037;-80
2022/05/02 02:42:09;;;;;;;9.23;6.63;;;;;;;11.75;90.11;100367.09;4884875;29;20037;-78
2022/05/02 02:44:35;;;;;;;11.10;7.65;;;;;;;11.56;91.58;100362.19;4882396;29;20030;-80
2022/05/02 02:47:01;;;;;;;10.60;7.22;;;;;;;11.54;91.56;100363.31;4880039;29;20457;-78
2022/05/02 02:49:27;;;;;;;10.07;6.93;;;;;;;11.59;91.82;100364.47;4884600;29;20045;-80
2022/05/02 02:51:52;;;;;;;10.20;7.75;;;;;;;11.45;92.47;100359.88;4884319;29;20062;-81
2022/05/02 02:54:18;;;;;;;14.40;7.32;;;;;;;11.46;92.41;100352.75;4884172;29;20092;-80
2022/05/02 02:56:44;;;;;;;12.82;7.15;;;;;;;11.52;92.17;100347.59;4885399;29;20101;-79
2022/05/02 02:59:10;;;;;;;10.43;7.85;;;;;;;11.34;94.09;100341.66;4885760;29;20042;-79
2022/05/02 03:01:36;;;;;;;10.60;8.20;;;;;;;11.49;93.70;100345.28;4885178;29;20034;-78
2022/05/02 03:06:46;;;;;;;12.30;8.13;;;;;;;11.53;93.00;100338.63;4903095;29;20049;-79
2022/05/02 03:09:12;;;;;;;10.70;8.02;;;;;;;11.46;92.85;100340.31;4903727;29;20063;-78
2022/05/02 03:11:38;;;;;;;12.07;8.25;;;;;;;11.38;93.21;100351.78;4903333;29;20048;-81
2022/05/02 03:14:03;;;;;;;13.55;8.07;;;;;;;11.34;93.47;100346.97;4903370;29;20021;-78
2022/05/02 03:16:29;;;;;;;13.65;8.40;;;;;;;11.20;94.34;100347.72;4880039;29;20141;-79
2022/05/02 03:18:54;;;;;;;10.60;8.27;;;;;;;11.27;94.88;100356.63;4865823;29;20408;-80
2022/05/02 03:21:20;;;;;;;14.38;9.32;;;;;;;11.21;94.67;100360.78;4866196;29;20041;-80
2022/05/02 03:23:46;;;;;;;11.25;8.23;;;;;;;11.28;94.95;100350.31;4883780;29;20088;-80
2022/05/02 03:26:11;;;;;;;10.57;8.10;;;;;;;11.42;94.04;100352.28;4883374;29;20040;-80
2022/05/02 03:28:36;;;;;;;11.65;8.18;;;;;;;11.29;93.89;100354.63;4884905;29;20049;-80
2022/05/02 03:31:02;;;;;;;12.68;7.95;;;;;;;11.52;93.28;100360.03;4898779;29;20047;-80
2022/05/02 03:33:28;;;;;;;10.82;8.57;;;;;;;11.33;93.36;100355.97;4887090;29;20041;-81
2022/05/02 03:35:54;;;;;;;13.48;9.43;;;;;;;11.32;93.85;100359.59;4847070;29;20567;-81
2022/05/02 03:38:20;;;;;;;13.23;9.20;;;;;;;11.52;92.52;100360.03;4863061;29;20417;-79
2022/05/02 03:40:45;;;;;;;13.27;9.40;;;;;;;11.39;92.48;100366.72;4863643;29;20041;-80
2022/05/02 03:43:11;;;;;;;10.95;8.75;;;;;;;11.59;91.70;100361.84;4846860;29;20145;-78
2022/05/02 03:45:37;;;;;;;13.23;9.05;;;;;;;11.39;93.12;100361.41;4862992;29;20095;-78
2022/05/02 03:48:03;;;;;;;13.38;8.90;;;;;;;11.41;92.70;100363.88;4862894;29;20037;-78
2022/05/02 03:50:29;;;;;;;14.00;9.48;;;;;;;11.36;93.65;100364.41;4863664;29;20041;-80
2022/05/02 03:52:54;;;;;;;12.50;9.25;;;;;;;11.12;94.98;100361.81;4873356;29;20045;-78
2022/05/02 03:55:20;;;;;;;18.15;10.30;;;;;;;10.77;97.34;100365.66;4882979;29;20043;-78
2022/05/02 03:57:45;;;;;;;14.88;10.13;;;;;;;10.70;98.28;100364.72;4876973;29;20045;-78
2022/05/02 04:00:11;;;;;;;14.80;9.23;;;;;;;10.74;99.50;100363.34;4864388;29;20470;-79
2022/05/02 04:02:40;;;;;;;14.50;9.77;;;;;;;10.75;98.56;100357.06;4861954;29;20066;-80
2022/05/02 04:05:07;;;;;;;17.05;10.13;;;;;;;10.75;98.45;100357.06;4861726;29;20418;-80
2022/05/02 04:07:33;;;;;;;14.32;10.48;;;;;;;10.62;100.00;100359.41;4861945;29;20109;-80
2022/05/02 04:09:58;;;;;;;16.65;10.40;;;;;;;10.57;100.00;100348.44;4861641;29;20038;-80
2022/05/02 04:12:24;;;;;;;13.43;9.82;;;;;;;10.59;100.00;100357.06;4861847;29;20393;-80
2022/05/02 04:14:49;;;;;;;20.30;10.88;;;;;;;10.55;100.00;100360.22;4861652;29;20049;-81
2022/05/02 04:17:15;;;;;;;14.65;9.80;;;;;;;10.43;100.00;100354.44;4861584;29;20048;-80
2022/05/02 04:19:41;;;;;;;15.15;10.07;;;;;;;10.36;100.00;100361.38;4878279;29;20041;-80
2022/05/02 04:22:07;;;;;;;16.50;9.43;;;;;;;10.03;100.00;100360.47;4880139;29;20493;-82
2022/05/02 04:24:32;;;;;;;16.42;10.65;;;;;;;9.85;100.00;100360.59;4879873;29;20033;-80
2022/05/02 04:26:58;;;;;;;23.02;11.30;;;;;;;9.81;100.00;100356.59;4880217;29;20043;-81
2022/05/02 04:29:24;;;;;;;18.52;12.25;;;;;;;9.92;100.00;100363.41;4879940;29;20390;-80
2022/05/02 04:31:50;;;;;;;19.17;11.27;;;;;;;10.02;100.00;100355.31;4880190;29;20044;-78
2022/05/02 04:34:16;;;;;;;27.88;11.13;;;;;;;10.12;100.00;100359.50;4880123;29;20037;-81
2022/05/02 04:36:41;;;;;;;16.50;12.07;;;;;;;10.12;100.00;100358.66;4879885;29;20048;-82
2022/05/02 04:39:07;;;;;;;21.63;11.10;;;;;;;10.13;100.00;100358.50;4880400;29;20033;-80
2022/05/02 04:41:32;;;;;;;19.88;11.10;;;;;;;10.05;100.00;100358.47;4879536;29;20477;-82
2022/05/02 04:43:58;;;;;;;15.35;11.65;;;;;;;9.92;100.00;100350.19;4880090;29;20089;-87
2022/05/02 04:46:23;;;;;;;15.80;11.10;;;;;;;9.96;100.00;100348.03;4882258;29;20089;-85
2022/05/02 04:48:49;;;;;;;13.73;11.18;;;;;;;10.05;100.00;100352.34;4880160;29;20537;-82
2022/05/02 04:51:15;;;;;;;16.75;10.57;;;;;;;10.21;100.00;100347.09;4881048;29;20041;-83
2022/05/02 04:53:41;;;;;;;18.92;11.10;;;;;;;10.25;100.00;100353.75;4883757;29;20051;-86
2022/05/02 04:56:06;;;;;;;15.38;10.77;;;;;;;10.31;100.00;100358.38;4880153;29;20395;-82
2022/05/02 04:58:32;;;;;;;16.95;11.95;;;;;;;10.44;100.00;100357.91;4862526;29;20077;-83
2022/05/02 05:00:57;;;;;;;15.50;11.00;;;;;;;10.51;100.00;100365.00;4879792;29;20116;-83
2022/05/02 05:03:23;;;;;;;18.33;10.70;;;;;;;10.71;100.00;100362.84;4862006;29;20059;-84
2022/05/02 05:05:49;;;;;;;17.73;11.30;;;;;;;10.67;100.00;100369.50;4877892;29;20524;-82
2022/05/02 05:08:18;;;;;;;15.80;10.65;;;;;;;10.81;100.00;100372.28;4878021;29;20033;-81
2022/05/02 05:10:55;;;;;;;17.15;10.65;;;;;;;11.00;100.00;100368.47;4860988;29;20493;-83
2022/05/02 05:13:26;;;;;;;22.25;11.25;;;;;;;11.20;100.00;100372.38;4877674;29;20048;-82
2022/05/02 05:16:32;;;;;;;26.40;11.43;;;;;;;11.70;97.37;100372.06;4860802;29;20464;-83
2022/05/02 05:19:33;;;;;;;18.88;10.05;;;;;;;12.03;94.37;100374.59;4879154;29;20048;-83
2022/05/02 05:22:04;;;;;;;21.00;9.50;;;;;;;12.16;93.81;100373.03;4860449;29;20162;-80
2022/05/02 05:24:35;;;;;;;15.05;9.82;;;;;;;12.60;91.96;100383.81;4885338;29;20048;-83
2022/05/02 05:27:22;;;;;;;18.75;9.85;;;;;;;12.99;88.87;100385.47;4885674;29;20044;-81
2022/05/02 05:30:04;;;;;;;15.93;9.98;;;;;;;13.00;87.73;100384.44;4876603;29;20371;-83
2022/05/02 05:32:42;;;;;;;15.97;9.83;;;;;;;13.10;88.52;100387.72;4871445;29;20050;-84
2022/05/02 05:35:10;;;;;;;16.13;9.88;;;;;;;13.34;86.25;100392.78;4844981;29;20305;-85
2022/05/02 05:38:12;;;;;;;19.20;11.15;;;;;;;13.36;86.81;100390.75;4851975;29;20037;-81
2022/05/02 05:40:42;;;;;;;22.70;10.05;;;;;;;13.57;86.51;100388.19;4813076;29;20485;-83
2022/05/02 05:43:32;;;;;;;25.50;10.43;;;;;;;13.90;84.46;100383.28;4822791;29;20058;-81
2022/05/02 05:45:58;;;;;;;21.92;9.55;;;;;;;13.83;84.38;100387.72;4827615;29;20129;-81
2022/05/02 05:48:34;;;;;;;22.80;9.73;;;;;;;14.21;82.13;100385.69;4830219;29;20038;-86
2022/05/02 05:51:16;;;;;;;23.50;9.80;;;;;;;14.49;81.27;100389.28;4822458;29;20042;-86
2022/05/02 05:54:03;;;;;;;16.05;9.65;;;;;;;14.70;80.21;100391.13;4824369;29;20019;-85
2022/05/02 05:56:59;;;;;;;19.15;9.48;;;;;;;14.90;78.93;100395.63;4880107;29;20067;-84
2022/05/02 05:59:44;;;;;;;14.07;9.13;;;;;;;15.19;77.74;100401.78;4880565;29;20040;-84
2022/05/02 06:02:23;;;;;;;17.35;8.75;;;;;;;15.46;75.68;100398.25;4874239;29;20412;-83
2022/05/02 06:04:50;;;;;;;13.82;8.68;;;;;;;15.49;76.18;100393.38;4885133;29;20137;-85
2022/05/02 06:07:21;;;;;;;14.75;9.07;;;;;;;15.76;74.53;100394.34;4893140;29;20064;-84
2022/05/02 06:09:48;;;;;;;15.15;8.57;;;;;;;15.88;74.08;100391.91;4888766;29;20029;-83
2022/05/02 06:12:20;;;;;;;15.02;8.75;;;;;;;16.66;72.56;100391.34;4888917;29;20044;-81
2022/05/02 06:20:21;;;;;;;20.58;8.23;;;;;;;17.78;65.12;100389.34;4871666;29;20041;-87
2022/05/02 06:22:47;;;;;;;18.48;8.32;;;;;;;17.55;66.11;100379.13;4891661;29;20032;-86
2022/05/02 06:25:18;;;;;;;16.23;7.90;;;;;;;17.83;65.03;100381.47;4889119;29;20052;-84
2022/05/02 06:27:47;;;;;;;18.30;8.65;;;;;;;17.51;65.69;100383.22;4886734;29;20038;-86
2022/05/02 06:30:13;;;;;;;18.38;8.45;;;;;;;18.28;62.67;100376.94;4877606;29;20049;-84
2022/05/02 06:33:14;;;;;;;15.25;8.68;;;;;;;18.72;61.66;100389.47;4879072;29;20037;-85
2022/05/02 06:36:17;;;;;;;16.80;7.72;;;;;;;18.84;62.50;100386.91;4884178;29;20480;-84
2022/05/02 06:39:30;;;;;;;21.13;8.45;;;;;;;18.72;62.59;100388.66;4895907;29;20128;-83
2022/05/02 06:42:11;;;;;;;;;;;;;;;18.87;61.92;100381.09;4893123;29;20056;-81
2022/05/02 06:45:15;;;;;;;21.55;8.93;;;;;;;19.62;61.34;100393.38;4901290;29;19994;-83
2022/05/02 06:47:59;;;;;;;;;;;;;;;19.61;57.63;100399.84;4883220;29;20033;-82
2022/05/02 06:50:32;;;;;;;12.35;9.65;;;;;;;19.65;57.78;100394.84;4899575;29;19950;-84
2022/05/02 06:53:13;;;;;;;17.08;9.35;;;;;;;19.49;58.01;100396.22;4900333;29;20399;-81
2022/05/02 06:56:09;;;;;;;11.90;9.05;;;;;;;19.46;57.49;100404.72;4885209;29;20101;-82
2022/05/02 06:58:51;;;;;;;16.85;10.35;;;;;;;21.08;51.80;100402.72;4902065;29;20082;-81
2022/05/02 07:01:27;;;;;;;13.38;9.60;;;;;;;22.04;48.91;100402.19;4887664;29;20041;-80
2022/05/02 07:04:20;;;;;;;14.07;9.23;;;;;;;22.35;47.76;100397.38;4882219;29;20029;-83
2022/05/02 07:07:18;;;;;;;17.45;9.07;;;;;;;21.71;48.59;100402.00;4884771;29;20048;-78
2022/05/02 07:09:53;;;;;;;14.10;10.07;;;;;;;20.44;53.91;100402.72;4901918;29;20037;-81
2022/05/02 07:13:17;;;;;;;16.95;10.23;;;;;;;20.59;53.56;100392.34;4901848;29;20120;-82
2022/05/02 07:16:12;;;;;;;13.48;8.38;;;;;;;21.86;49.00;100402.34;4893252;29;20109;-83
2022/05/02 07:19:19;;;;;;;11.82;8.45;;;;;;;22.33;47.01;100400.34;4901073;23;20053;-81
2022/05/02 07:22:04;;;;;;;12.15;8.30;;;;;;;21.72;49.06;100397.44;4901152;29;20104;-82
2022/05/02 07:25:05;;;;;;;14.48;8.13;;;;;;;22.86;45.96;100409.94;4910340;29;20053;-88
2022/05/02 07:27:33;;;;;;;14.98;8.30;;;;;;;23.63;43.43;100414.38;4914103;29;20043;-86
2022/05/02 07:30:00;;;;;;;11.98;8.10;;;;;;;22.01;46.46;100407.25;4912585;29;20032;-84
2022/05/02 07:32:32;;;;;;;8.88;6.82;;;;;;;22.55;46.65;100403.16;4913754;29;20079;-87
2022/05/02 07:35:08;;;;;;;14.35;8.40;;;;;;;23.82;44.32;100412.22;4913350;29;20040;-83
2022/05/02 07:37:39;;;;;;;11.82;7.95;;;;;;;23.82;42.42;100412.22;4890787;29;20113;-86
2022/05/02 07:40:14;;;;;;;13.00;7.57;;;;;;;24.85;41.67;100413.09;4896479;29;20021;-86
2022/05/02 07:42:44;;;;;;;10.60;7.10;;;;;;;23.20;44.15;100421.56;4913475;29;20051;-85
2022/05/02 07:45:17;;;;;;;11.45;7.93;;;;;;;22.53;46.41;100416.09;4912610;29;20098;-83
2022/05/02 07:47:49;;;;;;;11.07;8.20;;;;;;;22.54;46.00;100415.00;4926721;29;20044;-82
2022/05/02 07:50:19;;;;;;;9.13;7.53;;;;;;;22.44;45.47;100412.94;4909990;29;20519;-83
2022/05/02 07:52:47;;;;;;;14.52;10.18;;;;;;;22.62;46.00;100411.94;4912626;29;20492;-84
2022/05/02 07:55:21;;;;;;;11.82;7.97;;;;;;;23.65;43.22;100424.97;4931013;29;20040;-83
2022/05/02 08:01:16;;;;;;;14.00;6.78;;;;;;;22.91;45.26;100413.53;4922337;29;20036;-80
2022/05/02 08:03:42;;;;;;;11.10;7.90;;;;;;;21.95;47.22;100414.44;4920131;29;20040;-82
2022/05/02 08:06:46;;;;;;;8.77;7.00;;;;;;;21.61;48.26;100420.69;4917966;29;20037;-84
2022/05/02 08:09:30;;;;;;;11.73;8.20;;;;;;;20.61;51.48;100412.59;4891756;29;20048;-85
2022/05/02 08:12:33;;;;;;;8.85;6.55;;;;;;;20.94;50.62;100417.50;4911888;29;20040;-83
2022/05/02 08:15:12;;;;;;;8.82;6.72;;;;;;;21.41;50.35;100421.03;4912021;29;20087;-83
2022/05/02 08:18:08;;;;;;;7.88;5.82;;;;;;;21.06;50.44;100420.19;4911540;29;20036;-84
2022/05/02 08:21:04;;;;;;;7.88;6.45;;;;;;;21.07;50.73;100417.28;4909392;29;20068;-82
2022/05/02 08:27:31;;;;;;;9.55;6.90;;;;;;;21.17;49.37;100415.91;4919234;29;20056;-80
2022/05/02 08:30:23;;;;;;;8.75;5.72;;;;;;;21.09;48.58;100407.09;4881716;29;20116;-83
2022/05/02 08:33:08;;;;;;;6.13;4.82;;;;;;;20.47;47.45;100415.75;4913609;29;20068;-84
2022/05/02 08:35:55;;;;;;;8.98;5.40;;;;;;;20.96;47.69;100417.25;4916791;29;20056;-83
2022/05/02 08:38:46;;;;;;;8.30;5.35;;;;;;;21.19;46.94;100424.56;4897746;29;20065;-84
2022/05/02 08:41:44;;;;;;;9.60;5.90;;;;;;;20.33;49.26;100415.09;4913762;29;20047;-83
2022/05/02 08:44:50;;;;;;;5.65;4.10;;;;;;;20.90;46.81;100410.09;4914726;29;20134;-83
2022/05/02 08:47:28;;;;;;;7.93;4.00;;;;;;;21.02;46.08;100414.44;4915733;29;20044;-84
2022/05/02 08:50:24;;;;;;;6.00;4.32;;;;;;;21.28;45.82;100415.91;4916519;29;20101;-79
2022/05/02 08:53:12;;;;;;;7.28;5.00;;;;;;;21.48;45.54;100418.22;4917071;29;20031;-81
2022/05/02 08:56:02;;;;;;;12.25;5.80;;;;;;;21.20;47.50;100416.25;4916918;29;20016;-82
2022/05/02 08:58:46;;;;;;;14.88;5.47;;;;;;;21.29;47.87;100414.03;4912543;29;20054;-82
2022/05/02 09:01:55;;;;;;;9.23;4.30;;;;;;;21.08;45.48;100423.47;4909409;29;20045;-81
2022/05/02 09:04:59;;;;;;;7.80;4.78;;;;;;;21.09;47.01;100412.50;4920758;29;20040;-84
2022/05/02 09:08:13;;;;;;;11.73;4.97;;;;;;;21.66;45.65;100423.50;4906886;29;20065;-82
2022/05/02 09:11:01;;;;;;;6.40;4.00;;;;;;;22.03;42.64;100419.47;4859118;29;20049;-83
2022/05/02 09:14:15;;;;;;;9.48;3.92;;;;;;;22.31;42.25;100423.22;4862170;29;20042;-82
2022/05/02 09:16:53;;;;;;;7.60;3.78;;;;;;;22.58;42.37;100414.28;4848439;29;20092;-81
2022/05/02 09:19:47;;;;;;;13.23;4.60;;;;;;;22.56;43.07;100415.63;4873641;29;20077;-84
2022/05/02 09:22:40;;;;;;;;;;;;;;;22.28;43.65;100421.00;4871244;29;20057;-81
2022/05/02 09:25:28;;;;;;;9.23;4.57;;;;;;;22.89;41.77;100426.50;4874506;29;19983;-82
2022/05/02 09:28:35;;;;;;;8.18;4.28;;;;;;;23.15;41.25;100428.53;4875167;29;20084;-81
2022/05/02 09:31:16;;;;;;;8.02;3.92;;;;;;;22.36;43.41;100410.66;4869483;29;20060;-82
2022/05/02 09:34:03;;;;;;;6.88;4.72;;;;;;;22.62;42.83;100417.34;4868889;29;20060;-83
2022/05/02 09:36:47;;;;;;;8.23;4.63;;;;;;;22.14;44.15;100413.19;4866954;29;20041;-83
2022/05/02 09:39:51;;;;;;;7.70;4.65;;;;;;;22.89;41.79;100426.50;4869396;29;20060;-84
2022/05/02 09:42:54;;;;;;;6.55;4.70;;;;;;;22.70;42.50;100408.88;4870265;29;20052;-84
2022/05/02 09:49:40;;;;;;;9.77;5.10;;;;;;;22.78;42.67;100408.47;4922513;29;20056;-85
2022/05/02 09:53:07;;;;;;;13.07;5.70;;;;;;;22.96;43.01;100410.94;4945804;23;20064;-82
2022/05/02 10:06:29;;;;;;;12.40;6.70;;;;;;;22.46;44.69;100396.53;4937614;29;20032;-82
2022/05/02 10:35:29;;;;;;;9.38;5.97;;;;;;;22.39;43.43;100379.63;5460738;23;20057;-90
2022/05/02 11:43:05;;;;;;;6.53;3.90;;;;;;;21.20;43.47;100329.19;2533895;27;20055;-80
2022/05/02 11:45:45;;;;;;;7.55;4.53;;;;;;;21.00;44.37;100341.13;4911375;29;20096;-80
2022/05/02 11:48:48;;;;;;;7.70;4.22;;;;;;;20.86;44.94;100320.84;4914503;29;20049;-83
2022/05/02 11:52:00;;;;;;;6.85;4.57;;;;;;;20.54;45.19;100330.31;4911020;29;20127;-81
2022/05/02 11:54:56;;;;;;;5.82;4.18;;;;;;;20.54;44.66;100324.91;4911763;29;20073;-80
2022/05/02 11:58:00;;;;;;;13.23;4.80;;;;;;;20.38;44.68;100304.84;4913841;23;20049;-79
2022/05/02 12:00:34;;;;;;;14.52;5.00;;;;;;;20.28;44.78;100319.94;4895155;29;20071;-84
2022/05/02 12:03:22;;;;;;;5.55;4.40;;;;;;;20.56;43.72;100322.81;4892868;29;20082;-81
2022/05/02 12:06:01;;;;;;;9.23;3.92;;;;;;;20.69;43.40;100317.19;4903127;29;20048;-82
2022/05/02 12:08:48;;;;;;;5.90;4.03;;;;;;;20.75;41.94;100315.47;4876757;29;20128;-80
2022/05/02 12:11:15;;;;;;;7.80;4.60;;;;;;;20.48;42.43;100310.50;4886367;29;20105;-80
2022/05/02 12:13:45;;;;;;;10.95;4.18;;;;;;;20.50;42.96;100334.50;4894215;29;20048;-80
2022/05/02 12:16:41;;;;;;;6.55;3.92;;;;;;;20.51;43.16;100320.00;4895847;29;20109;-83
2022/05/02 12:19:47;;;;;;;7.07;3.97;;;;;;;20.53;42.23;100320.56;4988277;23;20064;-82
2022/05/02 12:26:29;;;;;;;6.40;3.60;;;;;;;20.21;41.15;100316.50;4896205;29;20044;-82
2022/05/02 12:29:38;;;;;;;8.75;4.30;;;;;;;20.36;43.31;100314.22;4851751;29;20088;-82
2022/05/02 12:32:08;;;;;;;4.32;3.10;;;;;;;20.36;40.66;100303.44;4858687;29;20068;-82
2022/05/02 12:34:55;;;;;;;9.65;3.45;;;;;;;20.53;42.48;100307.13;4848693;29;20053;-82
2022/05/02 12:37:39;;;;;;;7.28;4.50;;;;;;;20.66;43.65;100314.16;4853684;29;20632;-83
2022/05/02 12:40:15;;;;;;;5.38;3.80;;;;;;;20.37;43.39;100302.41;4868137;29;20044;-82
2022/05/02 12:42:47;;;;;;;4.90;3.55;;;;;;;20.34;43.29;100309.09;4888525;29;20116;-84
2022/05/02 12:45:17;;;;;;;4.85;3.72;;;;;;;20.48;43.13;100297.03;4881104;29;20041;-81
2022/05/02 12:47:45;;;;;;;6.78;4.55;;;;;;;20.53;44.46;100307.13;4890897;29;20041;-81
2022/05/02 12:50:40;;;;;;;5.43;4.03;;;;;;;20.56;44.42;100291.31;4897208;29;20160;-81
2022/05/02 12:56:06;;;;;;;10.40;4.53;;;;;;;20.53;44.81;100299.03;4886725;29;20037;-81
2022/05/02 13:05:56;;;;;;;;;;;;;;;20.48;43.02;100282.78;4896689;29;20041;-82
2022/05/02 13:09:12;;;;;;;;;;;;;;;;;;;;;
2022/05/02 13:11:42;;;;;;;4.65;2.72;;;;;;;20.30;43.31;100269.38;4882223;29;20087;-80
2022/05/02 13:14:31;;;;;;;5.13;3.20;;;;;;;20.28;43.28;100263.44;4892409;29;20032;-83
2022/05/02 13:16:58;;;;;;;7.20;2.95;;;;;;;20.54;43.67;100261.13;4874853;29;20465;-80
2022/05/02 13:19:34;;;;;;;4.75;2.90;;;;;;;20.72;43.92;100257.47;4906081;23;20469;-80
2022/05/02 13:22:00;;;;;;;4.95;3.15;;;;;;;20.43;44.15;100274.56;4889114;29;20040;-84
2022/05/02 13:24:26;;;;;;;4.93;2.85;;;;;;;20.35;43.97;100261.44;4886487;29;20044;-84
2022/05/02 13:27:06;;;;;;;4.80;3.35;;;;;;;20.34;43.57;100260.63;4883060;29;20560;-84
2022/05/02 13:29:31;;;;;;;5.05;2.78;;;;;;;20.44;42.90;100260.06;4885794;29;20033;-80
2022/05/02 13:32:07;;;;;;;5.22;2.60;;;;;;;20.36;43.17;100252.31;4882682;29;20045;-80
2022/05/02 13:34:52;;;;;;;5.32;2.95;;;;;;;20.71;42.54;100260.41;4881391;29;20374;-79
2022/05/02 13:37:49;;;;;;;4.45;3.25;;;;;;;20.29;43.55;100254.28;4870022;29;20081;-81
2022/05/02 13:40:22;;;;;;;4.50;3.25;;;;;;;20.40;43.71;100253.50;4885188;29;20048;-80
2022/05/02 13:43:04;;;;;;;4.90;3.50;;;;;;;20.51;42.35;100239.22;4886580;29;20041;-80
2022/05/02 13:45:41;;;;;;;6.33;4.17;;;;;;;20.49;44.13;100258.28;4879860;29;20033;-81
2022/05/02 13:48:37;;;;;;;7.18;4.55;;;;;;;20.32;45.39;100245.75;4902032;23;20332;-80
2022/05/02 13:51:08;;;;;;;6.63;3.90;;;;;;;20.30;45.46;100242.47;4884121;29;20177;-79
2022/05/02 13:53:51;;;;;;;5.35;3.92;;;;;;;20.42;45.34;100233.34;4880664;29;20029;-79
2022/05/02 13:56:48;;;;;;;9.98;3.63;;;;;;;20.36;45.26;100247.75;4871599;29;20088;-78
2022/05/02 13:59:30;;;;;;;7.95;4.35;;;;;;;20.44;45.06;100254.66;4883340;29;20036;-79
2022/05/02 14:02:19;;;;;;;5.20;4.07;;;;;;;20.25;46.33;100243.13;4885071;29;20041;-82
2022/05/02 14:04:57;;;;;;;9.07;5.40;;;;;;;20.12;46.50;100238.78;4822169;29;20046;-80
2022/05/02 14:07:27;;;;;;;6.25;4.70;;;;;;;20.33;46.37;100245.53;4887992;23;20053;-78
2022/05/02 14:10:24;;;;;;;7.57;4.63;;;;;;;20.28;46.35;100249.97;4886767;29;20041;-80
2022/05/02 14:12:56;;;;;;;5.93;4.60;;;;;;;20.24;45.81;100251.44;4890633;29;20179;-83
2022/05/02 14:15:34;;;;;;;6.00;4.43;;;;;;;20.20;46.04;100239.50;4881246;29;20512;-82
2022/05/02 14:18:15;;;;;;;9.07;3.90;;;;;;;20.28;45.46;100245.41;4871962;29;20045;-80
2022/05/02 14:20:50;;;;;;;5.80;3.92;;;;;;;20.14;45.02;100227.78;4883625;29;20041;-80
2022/05/02 14:23:16;;;;;;;5.32;4.10;;;;;;;20.20;45.41;100231.44;4884379;29;20040;-79
2022/05/02 14:25:44;;;;;;;5.70;4.10;;;;;;;20.41;46.11;100233.59;4882390;29;20448;-79